sensor_id;sensor_type;location;lat;lon;timestamp;pressure;altitude;pressure_sealevel;temperature;humidity
55916;BME280;41826;53.246;-6.670;2023-06-14T00:00:39;100400.81;;;18.48;100.00
55916;BME280;41826;53.246;-6.670;2023-06-14T00:03:06;100423.56;;;18.91;100.00
55916;BME280;41826;53.246;-6.670;2023-06-14T00:05:38;100448.53;;;18.96;100.00
55916;BME280;41826;53.246;-6.670;2023-06-14T00:08:07;100472.91;;;19.07;100.00
55916;BME280;41826;53.246;-6.670;2023-06-14T00:10:34;100468.16;;;18.69;100.00
55916;BME280;41826;53.246;-6.670;2023-06-14T00:13:01;100465.69;;;18.67;100.00
55916;BME280;41826;53.246;-6.670;2023-06-14T00:15:26;100443.31;;;18.35;100.00
55916;BME280;41826;53.246;-6.670;2023-06-14T00:17:53;100376.53;;;17.42;100.00
55916;BME280;41826;53.246;-6.670;2023-06-14T00:20:20;100318.25;;;17.20;100.00
55916;BME280;41826;53.246;-6.670;2023-06-14T00:22:46;100290.75;;;16.86;100.00
55916;BME280;41826;53.246;-6.670;2023-06-14T00:25:11;100266.09;;;16.93;100.00
55916;BME280;41826;53.246;-6.670;2023-06-14T00:27:37;100275.06;;;17.33;100.00
55916;BME280;41826;53.246;-6.670;2023-06-14T00:30:02;100280.66;;;17.10;100.00
55916;BME280;41826;53.246;-6.670;2023-06-14T00:32:27;100280.22;;;16.72;100.00
55916;BME280;41826;53.246;-6.670;2023-06-14T00:34:53;100293.72;;;16.49;100.00
55916;BME280;41826;53.246;-6.670;2023-06-14T00:37:18;100279.69;;;16.55;100.00
55916;BME280;41826;53.246;-6.670;2023-06-14T00:39:44;100282.72;;;16.52;100.00
55916;BME280;41826;53.246;-6.670;2023-06-14T00:42:09;100279.91;;;16.32;100.00
55916;BME280;41826;53.246;-6.670;2023-06-14T00:44:35;100286.97;;;16.24;100.00
55916;BME280;41826;53.246;-6.670;2023-06-14T00:47:00;100280.44;;;16.20;100.00
55916;BME280;41826;53.246;-6.670;2023-06-14T00:49:28;100275.31;;;16.19;100.00
55916;BME280;41826;53.246;-6.670;2023-06-14T00:51:54;100275.50;;;16.39;100.00
55916;BME280;41826;53.246;-6.670;2023-06-14T00:54:20;100285.91;;;16.19;100.00
55916;BME280;41826;53.246;-6.670;2023-06-14T00:56:45;100298.56;;;16.45;100.00
55916;BME280;41826;53.246;-6.670;2023-06-14T00:59:11;100269.38;;;16.66;100.00
55916;BME280;41826;53.246;-6.670;2023-06-14T01:01:36;100266.38;;;17.11;100.00
55916;BME280;41826;53.246;-6.670;2023-06-14T01:04:04;100246.50;;;17.42;100.00
55916;BME280;41826;53.246;-6.670;2023-06-14T01:06:40;100243.94;;;17.68;100.00
55916;BME280;41826;53.246;-6.670;2023-06-14T01:09:17;100248.47;;;17.81;100.00
55916;BME280;41826;53.246;-6.670;2023-06-14T01:12:08;100270.38;;;16.37;100.00
55916;BME280;41826;53.246;-6.670;2023-06-14T01:14:36;100302.16;;;15.73;100.00
55916;BME280;41826;53.246;-6.670;2023-06-14T01:17:03;100331.16;;;15.66;100.00
55916;BME280;41826;53.246;-6.670;2023-06-14T01:19:30;100342.50;;;15.75;100.00
55916;BME280;41826;53.246;-6.670;2023-06-14T01:21:57;100344.19;;;16.19;100.00
55916;BME280;41826;53.246;-6.670;2023-06-14T01:24:23;100340.16;;;16.23;100.00
55916;BME280;41826;53.246;-6.670;2023-06-14T01:26:54;100343.91;;;16.57;100.00
55916;BME280;41826;53.246;-6.670;2023-06-14T01:29:25;100337.56;;;16.30;100.00
55916;BME280;41826;53.246;-6.670;2023-06-14T01:31:53;100277.00;;;17.11;100.00
55916;BME280;41826;53.246;-6.670;2023-06-14T01:34:19;100253.91;;;17.53;100.00
55916;BME280;41826;53.246;-6.670;2023-06-14T01:36:44;100248.47;;;17.81;100.00
55916;BME280;41826;53.246;-6.670;2023-06-14T01:39:13;100261.97;;;18.00;100.00
55916;BME280;41826;53.246;-6.670;2023-06-14T01:41:40;100295.88;;;17.97;100.00
55916;BME280;41826;53.246;-6.670;2023-06-14T01:44:06;100253.56;;;17.15;100.00
55916;BME280;41826;53.246;-6.670;2023-06-14T01:46:32;100232.94;;;17.10;100.00
55916;BME280;41826;53.246;-6.670;2023-06-14T01:48:57;100232.16;;;16.53;100.00
55916;BME280;41826;53.246;-6.670;2023-06-14T01:51:24;100253.75;;;16.50;100.00
55916;BME280;41826;53.246;-6.670;2023-06-14T01:53:49;100251.72;;;16.24;100.00
55916;BME280;41826;53.246;-6.670;2023-06-14T01:56:15;100274.56;;;16.53;100.00
55916;BME280;41826;53.246;-6.670;2023-06-14T01:58:41;100225.50;;;16.92;100.00
55916;BME280;41826;53.246;-6.670;2023-06-14T02:01:06;100237.34;;;16.96;100.00
55916;BME280;41826;53.246;-6.670;2023-06-14T02:03:32;100215.28;;;17.37;100.00
55916;BME280;41826;53.246;-6.670;2023-06-14T02:05:58;100219.19;;;17.61;100.00
55916;BME280;41826;53.246;-6.670;2023-06-14T02:08:23;100231.31;;;17.84;100.00
55916;BME280;41826;53.246;-6.670;2023-06-14T02:10:51;100268.91;;;17.94;100.00
55916;BME280;41826;53.246;-6.670;2023-06-14T02:13:17;100292.41;;;17.97;100.00
55916;BME280;41826;53.246;-6.670;2023-06-14T02:15:42;100307.13;;;18.00;100.00
55916;BME280;41826;53.246;-6.670;2023-06-14T02:18:09;100326.94;;;17.97;100.00
55916;BME280;41826;53.246;-6.670;2023-06-14T02:20:35;100286.00;;;17.71;100.00
55916;BME280;41826;53.246;-6.670;2023-06-14T02:23:01;100296.28;;;17.81;100.00
55916;BME280;41826;53.246;-6.670;2023-06-14T02:25:27;100304.03;;;17.83;100.00
55916;BME280;41826;53.246;-6.670;2023-06-14T02:27:55;100300.72;;;17.74;100.00
55916;BME280;41826;53.246;-6.670;2023-06-14T02:30:21;100321.19;;;17.87;100.00
55916;BME280;41826;53.246;-6.670;2023-06-14T02:32:46;100296.09;;;17.41;100.00
55916;BME280;41826;53.246;-6.670;2023-06-14T02:35:14;100321.53;;;17.70;100.00
55916;BME280;41826;53.246;-6.670;2023-06-14T02:37:40;100328.31;;;17.80;100.00
55916;BME280;41826;53.246;-6.670;2023-06-14T02:40:06;100323.97;;;17.72;100.00
55916;BME280;41826;53.246;-6.670;2023-06-14T02:42:31;100338.31;;;17.77;100.00
55916;BME280;41826;53.246;-6.670;2023-06-14T02:44:57;100338.94;;;17.80;100.00
55916;BME280;41826;53.246;-6.670;2023-06-14T02:47:22;100344.25;;;17.80;100.00
55916;BME280;41826;53.246;-6.670;2023-06-14T02:49:47;100355.06;;;17.78;100.00
55916;BME280;41826;53.246;-6.670;2023-06-14T02:52:13;100330.91;;;17.66;100.00
55916;BME280;41826;53.246;-6.670;2023-06-14T02:54:38;100347.06;;;17.65;100.00
55916;BME280;41826;53.246;-6.670;2023-06-14T02:57:05;100358.94;;;17.75;100.00
55916;BME280;41826;53.246;-6.670;2023-06-14T02:59:33;100366.91;;;17.75;100.00
55916;BME280;41826;53.246;-6.670;2023-06-14T03:01:58;100362.75;;;17.66;100.00
55916;BME280;41826;53.246;-6.670;2023-06-14T03:04:24;100359.25;;;17.59;100.00
55916;BME280;41826;53.246;-6.670;2023-06-14T03:06:51;100356.19;;;17.62;100.00
55916;BME280;41826;53.246;-6.670;2023-06-14T03:09:19;100312.19;;;17.33;100.00
55916;BME280;41826;53.246;-6.670;2023-06-14T03:11:44;100321.59;;;17.36;100.00
55916;BME280;41826;53.246;-6.670;2023-06-14T03:14:10;100344.31;;;17.51;100.00
55916;BME280;41826;53.246;-6.670;2023-06-14T03:16:37;100288.91;;;17.22;100.00
55916;BME280;41826;53.246;-6.670;2023-06-14T03:19:02;100308.28;;;17.22;100.00
55916;BME280;41826;53.246;-6.670;2023-06-14T03:21:28;100323.03;;;17.38;100.00
55916;BME280;41826;53.246;-6.670;2023-06-14T03:23:53;100326.28;;;17.33;100.00
55916;BME280;41826;53.246;-6.670;2023-06-14T03:26:19;100336.34;;;17.45;100.00
55916;BME280;41826;53.246;-6.670;2023-06-14T03:28:46;100344.75;;;17.55;100.00
55916;BME280;41826;53.246;-6.670;2023-06-14T03:31:12;100350.06;;;17.55;100.00
55916;BME280;41826;53.246;-6.670;2023-06-14T03:33:38;100350.44;;;17.52;100.00
55916;BME280;41826;53.246;-6.670;2023-06-14T03:36:04;100350.44;;;17.45;100.00
55916;BME280;41826;53.246;-6.670;2023-06-14T03:38:30;100354.53;;;17.48;100.00
55916;BME280;41826;53.246;-6.670;2023-06-14T03:40:55;100272.88;;;16.74;100.00
55916;BME280;41826;53.246;-6.670;2023-06-14T03:43:21;100300.22;;;17.09;100.00
55916;BME280;41826;53.246;-6.670;2023-06-14T03:45:46;100309.44;;;17.13;100.00
55916;BME280;41826;53.246;-6.670;2023-06-14T03:48:12;100320.75;;;17.28;100.00
55916;BME280;41826;53.246;-6.670;2023-06-14T03:50:37;100332.63;;;17.32;100.00
55916;BME280;41826;53.246;-6.670;2023-06-14T03:53:07;100348.75;;;17.38;100.00
55916;BME280;41826;53.246;-6.670;2023-06-14T03:55:33;100349.41;;;17.40;100.00
55916;BME280;41826;53.246;-6.670;2023-06-14T03:57:59;100354.25;;;17.29;100.00
55916;BME280;41826;53.246;-6.670;2023-06-14T04:00:24;100348.31;;;17.27;100.00
55916;BME280;41826;53.246;-6.670;2023-06-14T04:02:50;100336.84;;;17.20;100.00
55916;BME280;41826;53.246;-6.670;2023-06-14T04:05:17;100304.19;;;16.85;100.00
55916;BME280;41826;53.246;-6.670;2023-06-14T04:07:44;100247.69;;;16.28;100.00
55916;BME280;41826;53.246;-6.670;2023-06-14T04:10:13;100245.78;;;16.43;100.00
55916;BME280;41826;53.246;-6.670;2023-06-14T04:12:39;100239.50;;;16.51;100.00
55916;BME280;41826;53.246;-6.670;2023-06-14T04:15:05;100254.22;;;16.60;100.00
55916;BME280;41826;53.246;-6.670;2023-06-14T04:17:34;100263.56;;;16.78;100.00
55916;BME280;41826;53.246;-6.670;2023-06-14T04:20:00;100268.50;;;16.87;100.00
55916;BME280;41826;53.246;-6.670;2023-06-14T04:22:26;100284.00;;;16.84;100.00
55916;BME280;41826;53.246;-6.670;2023-06-14T04:24:56;100302.19;;;16.94;100.00
55916;BME280;41826;53.246;-6.670;2023-06-14T04:27:26;100311.63;;;17.03;100.00
55916;BME280;41826;53.246;-6.670;2023-06-14T04:29:53;100322.28;;;17.09;100.00
55916;BME280;41826;53.246;-6.670;2023-06-14T04:32:25;100332.72;;;17.18;100.00
55916;BME280;41826;53.246;-6.670;2023-06-14T04:34:57;100335.56;;;17.16;100.00
55916;BME280;41826;53.246;-6.670;2023-06-14T04:37:25;100329.03;;;17.12;100.00
55916;BME280;41826;53.246;-6.670;2023-06-14T04:39:54;100306.09;;;16.98;100.00
55916;BME280;41826;53.246;-6.670;2023-06-14T04:42:21;100313.88;;;17.06;100.00
55916;BME280;41826;53.246;-6.670;2023-06-14T04:44:50;100325.81;;;17.17;100.00
55916;BME280;41826;53.246;-6.670;2023-06-14T04:47:16;100332.97;;;17.23;100.00
55916;BME280;41826;53.246;-6.670;2023-06-14T04:49:42;100349.22;;;17.54;100.00
55916;BME280;41826;53.246;-6.670;2023-06-14T04:52:07;100361.59;;;17.75;100.00
55916;BME280;41826;53.246;-6.670;2023-06-14T04:54:36;100371.66;;;17.87;100.00
55916;BME280;41826;53.246;-6.670;2023-06-14T04:57:04;100379.06;;;17.98;100.00
55916;BME280;41826;53.246;-6.670;2023-06-14T04:59:30;100381.31;;;18.01;100.00
55916;BME280;41826;53.246;-6.670;2023-06-14T05:01:58;100393.38;;;18.10;100.00
55916;BME280;41826;53.246;-6.670;2023-06-14T05:04:25;100401.00;;;18.27;100.00
55916;BME280;41826;53.246;-6.670;2023-06-14T05:06:52;100408.56;;;18.30;100.00
55916;BME280;41826;53.246;-6.670;2023-06-14T05:09:22;100411.66;;;18.33;100.00
55916;BME280;41826;53.246;-6.670;2023-06-14T05:11:48;100423.50;;;18.31;100.00
55916;BME280;41826;53.246;-6.670;2023-06-14T05:14:13;100434.78;;;18.46;100.00
55916;BME280;41826;53.246;-6.670;2023-06-14T05:16:39;100445.22;;;18.61;100.00
55916;BME280;41826;53.246;-6.670;2023-06-14T05:19:05;100447.47;;;18.64;100.00
55916;BME280;41826;53.246;-6.670;2023-06-14T05:21:31;100462.06;;;18.81;100.00
55916;BME280;41826;53.246;-6.670;2023-06-14T05:23:59;100478.03;;;18.95;100.00
55916;BME280;41826;53.246;-6.670;2023-06-14T05:26:24;100487.63;;;19.16;100.00
55916;BME280;41826;53.246;-6.670;2023-06-14T05:28:54;100496.22;;;19.31;100.00
55916;BME280;41826;53.246;-6.670;2023-06-14T05:31:22;100496.63;;;19.48;100.00
55916;BME280;41826;53.246;-6.670;2023-06-14T05:33:48;100510.75;;;19.55;100.00
55916;BME280;41826;53.246;-6.670;2023-06-14T05:36:13;100523.47;;;19.53;100.00
55916;BME280;41826;53.246;-6.670;2023-06-14T05:38:40;100532.69;;;19.57;100.00
55916;BME280;41826;53.246;-6.670;2023-06-14T05:41:05;100532.88;;;19.56;100.00
55916;BME280;41826;53.246;-6.670;2023-06-14T05:43:30;100537.78;;;19.72;100.00
55916;BME280;41826;53.246;-6.670;2023-06-14T05:45:57;100543.69;;;19.87;100.00
55916;BME280;41826;53.246;-6.670;2023-06-14T05:48:22;100544.50;;;19.95;100.00
55916;BME280;41826;53.246;-6.670;2023-06-14T05:50:47;100544.34;;;19.76;100.00
55916;BME280;41826;53.246;-6.670;2023-06-14T05:53:13;100532.41;;;19.99;100.00
55916;BME280;41826;53.246;-6.670;2023-06-14T05:55:38;100541.16;;;20.26;100.00
55916;BME280;41826;53.246;-6.670;2023-06-14T05:58:04;100550.88;;;20.45;100.00
55916;BME280;41826;53.246;-6.670;2023-06-14T06:00:29;100545.59;;;20.39;100.00
55916;BME280;41826;53.246;-6.670;2023-06-14T06:02:54;100535.94;;;20.44;100.00
55916;BME280;41826;53.246;-6.670;2023-06-14T06:05:23;100537.50;;;20.13;100.00
55916;BME280;41826;53.246;-6.670;2023-06-14T06:07:48;100530.41;;;20.39;100.00
55916;BME280;41826;53.246;-6.670;2023-06-14T06:10:14;100512.72;;;20.51;100.00
55916;BME280;41826;53.246;-6.670;2023-06-14T06:12:41;100508.81;;;20.54;100.00
55916;BME280;41826;53.246;-6.670;2023-06-14T06:15:07;100516.69;;;20.35;100.00
55916;BME280;41826;53.246;-6.670;2023-06-14T06:17:33;100511.41;;;20.29;100.00
55916;BME280;41826;53.246;-6.670;2023-06-14T06:19:58;100490.09;;;20.22;100.00
55916;BME280;41826;53.246;-6.670;2023-06-14T06:22:24;100473.31;;;20.15;100.00
55916;BME280;41826;53.246;-6.670;2023-06-14T06:24:49;100458.97;;;20.09;100.00
55916;BME280;41826;53.246;-6.670;2023-06-14T06:27:15;100475.28;;;19.88;100.00
55916;BME280;41826;53.246;-6.670;2023-06-14T06:29:42;100484.88;;;19.96;100.00
55916;BME280;41826;53.246;-6.670;2023-06-14T06:32:09;100471.38;;;19.90;100.00
55916;BME280;41826;53.246;-6.670;2023-06-14T06:34:34;100488.91;;;20.05;100.00
55916;BME280;41826;53.246;-6.670;2023-06-14T06:37:01;100476.56;;;20.17;100.00
55916;BME280;41826;53.246;-6.670;2023-06-14T06:39:26;100490.13;;;20.16;100.00
55916;BME280;41826;53.246;-6.670;2023-06-14T06:41:51;100492.56;;;20.17;100.00
55916;BME280;41826;53.246;-6.670;2023-06-14T06:44:17;100488.03;;;20.24;100.00
55916;BME280;41826;53.246;-6.670;2023-06-14T06:46:43;100504.88;;;20.18;100.00
55916;BME280;41826;53.246;-6.670;2023-06-14T06:49:09;100520.88;;;20.11;100.00
55916;BME280;41826;53.246;-6.670;2023-06-14T06:51:37;100520.25;;;20.16;100.00
55916;BME280;41826;53.246;-6.670;2023-06-14T06:54:02;100521.06;;;20.23;100.00
55916;BME280;41826;53.246;-6.670;2023-06-14T06:56:28;100544.63;;;20.26;100.00
55916;BME280;41826;53.246;-6.670;2023-06-14T06:58:54;100560.19;;;20.23;100.00
55916;BME280;41826;53.246;-6.670;2023-06-14T07:01:19;100563.47;;;20.31;100.00
55916;BME280;41826;53.246;-6.670;2023-06-14T07:03:51;100572.97;;;20.14;100.00
55916;BME280;41826;53.246;-6.670;2023-06-14T07:06:17;100578.44;;;20.32;100.00
55916;BME280;41826;53.246;-6.670;2023-06-14T07:08:44;100598.56;;;20.22;100.00
55916;BME280;41826;53.246;-6.670;2023-06-14T07:11:10;100603.84;;;20.35;100.00
55916;BME280;41826;53.246;-6.670;2023-06-14T07:13:35;100599.50;;;20.47;100.00
55916;BME280;41826;53.246;-6.670;2023-06-14T07:16:01;100598.69;;;20.53;100.00
55916;BME280;41826;53.246;-6.670;2023-06-14T07:18:27;100604.19;;;20.65;100.00
55916;BME280;41826;53.246;-6.670;2023-06-14T07:20:53;100612.28;;;20.32;100.00
55916;BME280;41826;53.246;-6.670;2023-06-14T07:23:20;100610.59;;;20.51;100.00
55916;BME280;41826;53.246;-6.670;2023-06-14T07:25:45;100622.94;;;20.39;100.00
55916;BME280;41826;53.246;-6.670;2023-06-14T07:28:11;100642.66;;;20.24;100.00
55916;BME280;41826;53.246;-6.670;2023-06-14T07:30:36;100641.47;;;19.94;100.00
55916;BME280;41826;53.246;-6.670;2023-06-14T07:33:02;100645.72;;;20.21;100.00
55916;BME280;41826;53.246;-6.670;2023-06-14T07:35:27;100639.75;;;20.39;100.00
55916;BME280;41826;53.246;-6.670;2023-06-14T07:37:52;100645.13;;;20.26;100.00
55916;BME280;41826;53.246;-6.670;2023-06-14T07:40:18;100666.63;;;20.24;100.00
55916;BME280;41826;53.246;-6.670;2023-06-14T07:42:43;100666.25;;;20.01;100.00
55916;BME280;41826;53.246;-6.670;2023-06-14T07:45:09;100684.47;;;20.17;100.00
55916;BME280;41826;53.246;-6.670;2023-06-14T07:47:35;100685.53;;;20.16;100.00
55916;BME280;41826;53.246;-6.670;2023-06-14T07:50:00;100707.88;;;20.02;100.00
55916;BME280;41826;53.246;-6.670;2023-06-14T07:52:26;100724.28;;;19.85;100.00
55916;BME280;41826;53.246;-6.670;2023-06-14T07:54:51;100737.38;;;20.07;100.00
55916;BME280;41826;53.246;-6.670;2023-06-14T07:57:17;100741.50;;;20.16;100.00
55916;BME280;41826;53.246;-6.670;2023-06-14T07:59:45;100771.22;;;20.06;100.00
55916;BME280;41826;53.246;-6.670;2023-06-14T08:02:10;100769.38;;;20.20;100.00
55916;BME280;41826;53.246;-6.670;2023-06-14T08:04:36;100758.91;;;20.25;100.00
55916;BME280;41826;53.246;-6.670;2023-06-14T08:07:01;100788.63;;;20.22;100.00
55916;BME280;41826;53.246;-6.670;2023-06-14T08:09:27;100782.50;;;20.28;100.00
55916;BME280;41826;53.246;-6.670;2023-06-14T08:11:54;100806.72;;;20.53;100.00
55916;BME280;41826;53.246;-6.670;2023-06-14T08:14:19;100780.72;;;21.14;100.00
55916;BME280;41826;53.246;-6.670;2023-06-14T08:16:45;100808.25;;;21.66;100.00
55916;BME280;41826;53.246;-6.670;2023-06-14T08:19:10;100848.41;;;21.53;100.00
55916;BME280;41826;53.246;-6.670;2023-06-14T08:21:36;100853.63;;;22.11;100.00
55916;BME280;41826;53.246;-6.670;2023-06-14T08:24:02;100868.00;;;22.48;100.00
55916;BME280;41826;53.246;-6.670;2023-06-14T08:26:28;100864.28;;;22.18;100.00
55916;BME280;41826;53.246;-6.670;2023-06-14T08:28:55;100874.56;;;22.53;100.00
55916;BME280;41826;53.246;-6.670;2023-06-14T08:31:21;100868.88;;;22.42;100.00
55916;BME280;41826;53.246;-6.670;2023-06-14T08:33:46;100878.97;;;22.90;100.00
55916;BME280;41826;53.246;-6.670;2023-06-14T08:36:12;100877.50;;;22.94;100.00
55916;BME280;41826;53.246;-6.670;2023-06-14T08:38:38;100879.69;;;23.04;100.00
55916;BME280;41826;53.246;-6.670;2023-06-14T08:41:05;100877.97;;;23.28;100.00
55916;BME280;41826;53.246;-6.670;2023-06-14T08:43:32;100879.03;;;23.46;100.00
55916;BME280;41826;53.246;-6.670;2023-06-14T08:46:00;100889.16;;;23.25;100.00
55916;BME280;41826;53.246;-6.670;2023-06-14T08:48:27;100884.38;;;23.83;100.00
55916;BME280;41826;53.246;-6.670;2023-06-14T08:50:56;100875.16;;;23.78;100.00
55916;BME280;41826;53.246;-6.670;2023-06-14T08:53:28;100874.53;;;24.07;100.00
55916;BME280;41826;53.246;-6.670;2023-06-14T08:55:54;100871.78;;;24.25;100.00
55916;BME280;41826;53.246;-6.670;2023-06-14T08:58:20;100880.03;;;23.82;100.00
55916;BME280;41826;53.246;-6.670;2023-06-14T09:00:49;100877.06;;;24.32;100.00
55916;BME280;41826;53.246;-6.670;2023-06-14T09:03:17;100870.59;;;24.09;100.00
55916;BME280;41826;53.246;-6.670;2023-06-14T09:05:45;100873.19;;;24.16;100.00
55916;BME280;41826;53.246;-6.670;2023-06-14T09:08:11;100872.59;;;24.26;100.00
55916;BME280;41826;53.246;-6.670;2023-06-14T09:10:36;100873.56;;;24.43;100.00
55916;BME280;41826;53.246;-6.670;2023-06-14T09:13:03;100864.66;;;24.49;100.00
55916;BME280;41826;53.246;-6.670;2023-06-14T09:15:33;100866.53;;;24.72;100.00
55916;BME280;41826;53.246;-6.670;2023-06-14T09:18:01;100862.41;;;24.58;100.00
55916;BME280;41826;53.246;-6.670;2023-06-14T09:20:29;100868.47;;;24.53;100.00
55916;BME280;41826;53.246;-6.670;2023-06-14T09:22:55;100873.34;;;23.54;100.00
55916;BME280;41826;53.246;-6.670;2023-06-14T09:25:20;100861.75;;;23.78;100.00
55916;BME280;41826;53.246;-6.670;2023-06-14T09:27:46;100869.53;;;23.80;100.00
55916;BME280;41826;53.246;-6.670;2023-06-14T09:30:12;100878.72;;;23.54;100.00
55916;BME280;41826;53.246;-6.670;2023-06-14T09:32:41;100879.91;;;23.58;100.00
55916;BME280;41826;53.246;-6.670;2023-06-14T09:35:07;100894.13;;;23.22;100.00
55916;BME280;41826;53.246;-6.670;2023-06-14T09:37:33;100877.53;;;23.31;100.00
55916;BME280;41826;53.246;-6.670;2023-06-14T09:39:59;100875.84;;;23.67;100.00
55916;BME280;41826;53.246;-6.670;2023-06-14T09:42:26;100881.06;;;23.99;100.00
55916;BME280;41826;53.246;-6.670;2023-06-14T09:44:53;100880.59;;;24.44;100.00
55916;BME280;41826;53.246;-6.670;2023-06-14T09:47:20;100886.91;;;23.59;100.00
55916;BME280;41826;53.246;-6.670;2023-06-14T09:49:46;100885.13;;;23.16;100.00
55916;BME280;41826;53.246;-6.670;2023-06-14T09:52:15;100888.81;;;22.97;100.00
55916;BME280;41826;53.246;-6.670;2023-06-14T09:54:42;100888.09;;;23.08;100.00
55916;BME280;41826;53.246;-6.670;2023-06-14T09:57:22;100893.59;;;23.31;100.00
55916;BME280;41826;53.246;-6.670;2023-06-14T09:59:52;100889.06;;;22.88;100.00
55916;BME280;41826;53.246;-6.670;2023-06-14T10:02:25;100900.72;;;22.12;100.00
55916;BME280;41826;53.246;-6.670;2023-06-14T10:04:57;100898.19;;;22.56;100.00
55916;BME280;41826;53.246;-6.670;2023-06-14T10:07:26;100904.00;;;23.21;100.00
55916;BME280;41826;53.246;-6.670;2023-06-14T10:09:53;100903.53;;;22.81;100.00
55916;BME280;41826;53.246;-6.670;2023-06-14T10:12:19;100899.69;;;23.02;97.39
55916;BME280;41826;53.246;-6.670;2023-06-14T10:14:49;100910.56;;;22.57;97.07
55916;BME280;41826;53.246;-6.670;2023-06-14T10:20:17;100903.72;;;23.11;91.11
55916;BME280;41826;53.246;-6.670;2023-06-14T10:22:50;100901.28;;;23.09;92.43
55916;BME280;41826;53.246;-6.670;2023-06-14T10:25:26;100909.97;;;23.23;91.05
55916;BME280;41826;53.246;-6.670;2023-06-14T10:27:52;100904.91;;;22.65;92.68
55916;BME280;41826;53.246;-6.670;2023-06-14T10:30:25;100912.63;;;22.80;87.88
55916;BME280;41826;53.246;-6.670;2023-06-14T10:33:07;100922.53;;;23.04;81.28
55916;BME280;41826;53.246;-6.670;2023-06-14T10:35:33;100926.84;;;23.05;79.62
55916;BME280;41826;53.246;-6.670;2023-06-14T10:38:12;100921.03;;;23.08;79.21
55916;BME280;41826;53.246;-6.670;2023-06-14T10:40:38;100913.56;;;23.54;78.67
55916;BME280;41826;53.246;-6.670;2023-06-14T10:43:23;100908.03;;;22.87;81.97
55916;BME280;41826;53.246;-6.670;2023-06-14T10:46:15;100916.25;;;23.35;81.06
55916;BME280;41826;53.246;-6.670;2023-06-14T10:48:41;100928.72;;;22.48;80.01
55916;BME280;41826;53.246;-6.670;2023-06-14T10:51:18;100916.00;;;22.93;80.24
55916;BME280;41826;53.246;-6.670;2023-06-14T10:53:46;100933.84;;;22.49;79.27
55916;BME280;41826;53.246;-6.670;2023-06-14T10:56:31;100920.06;;;22.21;82.42
55916;BME280;41826;53.246;-6.670;2023-06-14T10:58:57;100914.19;;;22.37;87.67
55916;BME280;41826;53.246;-6.670;2023-06-14T11:01:32;100902.94;;;22.79;87.31
55916;BME280;41826;53.246;-6.670;2023-06-14T11:04:07;100915.03;;;22.88;84.95
55916;BME280;41826;53.246;-6.670;2023-06-14T11:11:45;100915.47;;;23.10;76.69
55916;BME280;41826;53.246;-6.670;2023-06-14T11:14:11;100906.19;;;22.87;85.36
55916;BME280;41826;53.246;-6.670;2023-06-14T11:16:37;100905.38;;;22.62;87.92
55916;BME280;41826;53.246;-6.670;2023-06-14T11:19:02;100906.03;;;22.19;86.11
55916;BME280;41826;53.246;-6.670;2023-06-14T11:21:32;100907.28;;;22.16;90.32
55916;BME280;41826;53.246;-6.670;2023-06-14T11:23:58;100908.81;;;22.05;93.06
55916;BME280;41826;53.246;-6.670;2023-06-14T11:26:25;100914.69;;;21.69;93.91
55916;BME280;41826;53.246;-6.670;2023-06-14T11:28:55;100908.31;;;22.22;98.08
55916;BME280;41826;53.246;-6.670;2023-06-14T11:31:21;100901.25;;;21.96;100.00
55916;BME280;41826;53.246;-6.670;2023-06-14T11:33:50;100908.03;;;22.30;97.93
55916;BME280;41826;53.246;-6.670;2023-06-14T11:36:15;100913.81;;;21.10;97.80
55916;BME280;41826;53.246;-6.670;2023-06-14T11:38:41;100908.28;;;21.05;95.93
55916;BME280;41826;53.246;-6.670;2023-06-14T11:41:07;100914.34;;;21.59;94.48
55916;BME280;41826;53.246;-6.670;2023-06-14T11:43:32;100899.03;;;22.18;98.36
55916;BME280;41826;53.246;-6.670;2023-06-14T11:46:00;100894.81;;;21.58;99.28
55916;BME280;41826;53.246;-6.670;2023-06-14T11:48:42;100904.75;;;21.18;99.42
55916;BME280;41826;53.246;-6.670;2023-06-14T11:51:07;100901.50;;;21.03;100.00
55916;BME280;41826;53.246;-6.670;2023-06-14T11:53:33;100906.16;;;21.34;94.36
55916;BME280;41826;53.246;-6.670;2023-06-14T11:55:59;100888.72;;;21.90;100.00
55916;BME280;41826;53.246;-6.670;2023-06-14T11:58:25;100894.28;;;21.88;100.00
55916;BME280;41826;53.246;-6.670;2023-06-14T12:00:53;100890.84;;;22.13;100.00
55916;BME280;41826;53.246;-6.670;2023-06-14T12:03:23;100889.09;;;21.55;100.00
55916;BME280;41826;53.246;-6.670;2023-06-14T12:05:48;100894.81;;;21.58;100.00
55916;BME280;41826;53.246;-6.670;2023-06-14T12:08:14;100907.13;;;21.66;100.00
55916;BME280;41826;53.246;-6.670;2023-06-14T12:10:43;100898.59;;;21.82;100.00
55916;BME280;41826;53.246;-6.670;2023-06-14T12:13:08;100902.16;;;22.15;100.00
55916;BME280;41826;53.246;-6.670;2023-06-14T12:15:34;100893.75;;;22.11;100.00
55916;BME280;41826;53.246;-6.670;2023-06-14T12:18:00;100901.06;;;21.91;100.00
55916;BME280;41826;53.246;-6.670;2023-06-14T12:20:30;100892.09;;;22.10;100.00
55916;BME280;41826;53.246;-6.670;2023-06-14T12:22:57;100907.38;;;21.58;100.00
55916;BME280;41826;53.246;-6.670;2023-06-14T12:25:33;100900.16;;;21.58;100.00
55916;BME280;41826;53.246;-6.670;2023-06-14T12:28:07;100902.06;;;21.90;100.00
55916;BME280;41826;53.246;-6.670;2023-06-14T12:30:34;100897.59;;;21.77;100.00
55916;BME280;41826;53.246;-6.670;2023-06-14T12:33:01;100898.66;;;21.76;100.00
55916;BME280;41826;53.246;-6.670;2023-06-14T12:35:27;100897.53;;;21.90;100.00
55916;BME280;41826;53.246;-6.670;2023-06-14T12:37:52;100887.88;;;21.24;100.00